createdAt,value
2018-12-18T08:27:54.510Z,7.60
2018-12-18T08:30:23.744Z,5.43
2018-12-18T08:32:52.456Z,6.20
2018-12-18T08:35:21.404Z,6.37
2018-12-18T08:37:56.812Z,5.70
2018-12-18T08:40:25.697Z,6.70
2018-12-18T08:42:59.654Z,6.03
2018-12-18T08:45:28.811Z,6.07
2018-12-18T08:47:57.657Z,6.80
2018-12-18T08:50:27.335Z,6.77
2018-12-18T08:52:57.042Z,6.33
2018-12-18T08:55:27.900Z,5.57
2018-12-18T08:57:56.565Z,5.70
2018-12-18T09:00:28.486Z,5.87
2018-12-18T09:03:09.844Z,6.30
2018-12-18T09:05:43.069Z,6.80
2018-12-18T09:08:10.546Z,6.37
2018-12-18T09:10:40.554Z,6.03
2018-12-18T09:13:09.974Z,6.03
2018-12-18T09:15:45.102Z,5.97
2018-12-18T09:18:18.047Z,9.87
2018-12-18T09:20:49.466Z,7.77
2018-12-18T09:23:18.314Z,6.50
2018-12-18T09:25:56.650Z,6.70
2018-12-18T09:28:40.684Z,6.63
2018-12-18T09:31:10.746Z,6.20
2018-12-18T09:33:39.583Z,5.60
2018-12-18T09:36:20.265Z,6.30
2018-12-18T09:38:54.350Z,6.30
2018-12-18T09:41:31.587Z,6.00
2018-12-18T09:44:10.911Z,6.10
2018-12-18T09:46:41.773Z,5.90
2018-12-18T09:49:13.419Z,7.67
2018-12-18T09:51:42.078Z,6.23
2018-12-18T09:54:11.127Z,5.60
2018-12-18T09:56:53.581Z,6.00
2018-12-18T09:59:23.177Z,6.07
2018-12-18T10:01:52.977Z,6.63
2018-12-18T10:04:22.107Z,6.20
2018-12-18T10:06:55.562Z,6.77
2018-12-18T10:09:24.436Z,7.23
2018-12-18T10:11:53.087Z,6.63
2018-12-18T10:14:23.254Z,7.10
2018-12-18T10:16:53.043Z,6.87
2018-12-18T10:19:21.791Z,5.80
2018-12-18T10:21:50.532Z,6.20
2018-12-18T10:32:20.765Z,5.30
2018-12-18T10:34:49.339Z,5.50
2018-12-18T10:40:19.986Z,6.27
2018-12-18T10:42:48.702Z,5.53
2018-12-18T10:45:19.937Z,5.50
2018-12-18T10:50:41.830Z,6.33
2018-12-18T10:53:11.739Z,6.00
2018-12-18T10:55:41.337Z,8.07
2018-12-18T10:58:13.315Z,6.10
2018-12-18T11:00:47.487Z,6.40
2018-12-18T11:03:16.234Z,6.53
2018-12-18T11:05:58.926Z,6.10
2018-12-18T11:08:28.255Z,6.77
2018-12-18T11:11:10.538Z,7.23
2018-12-18T11:13:42.322Z,7.80
2018-12-18T11:16:51.881Z,6.77
2018-12-18T11:19:31.586Z,6.33
2018-12-18T11:22:01.298Z,5.63
2018-12-18T11:24:32.144Z,6.07
2018-12-18T11:39:51.624Z,6.40
2018-12-18T11:42:20.751Z,6.23
2018-12-18T11:44:51.539Z,6.77
2018-12-18T11:47:20.356Z,6.43
2018-12-18T11:49:50.130Z,6.20
2018-12-18T11:52:18.919Z,6.43
2018-12-18T11:54:50.040Z,6.40
2018-12-18T11:57:19.185Z,5.70
2018-12-18T12:01:48.855Z,5.10
2018-12-18T12:07:18.896Z,6.00
2018-12-18T12:09:47.627Z,5.50
2018-12-18T12:12:17.163Z,4.90
2018-12-18T12:14:45.947Z,4.37
2018-12-18T12:17:16.359Z,2.90
2018-12-18T12:19:45.128Z,3.60
2018-12-18T12:22:13.693Z,3.03
2018-12-18T12:24:42.522Z,3.60
2018-12-18T12:27:17.392Z,4.07
2018-12-18T12:29:46.674Z,3.33
2018-12-18T12:32:15.479Z,3.07
2018-12-18T12:34:44.209Z,4.10
2018-12-18T12:37:12.823Z,3.60
2018-12-18T12:39:45.638Z,3.40
2018-12-18T12:42:14.383Z,4.27
2018-12-18T12:44:43.306Z,3.87
2018-12-18T12:47:14.349Z,3.90
2018-12-18T12:49:43.853Z,3.93
2018-12-18T12:52:13.019Z,4.10
2018-12-18T12:54:41.685Z,4.10
2018-12-18T12:57:11.435Z,3.93
2018-12-18T12:59:40.273Z,4.13
2018-12-18T13:02:09.241Z,4.07
2018-12-18T13:04:38.821Z,4.00
2018-12-18T13:19:03.215Z,4.20
2018-12-18T13:21:34.317Z,4.03
2018-12-18T13:24:02.922Z,4.20
2018-12-18T13:26:31.714Z,4.30
2018-12-18T13:29:00.326Z,4.13
2018-12-18T13:43:33.984Z,3.53
2018-12-18T13:46:02.723Z,2.80
2018-12-18T13:48:31.239Z,3.10
2018-12-18T13:50:59.785Z,3.13
2018-12-18T13:53:28.542Z,2.80
2018-12-18T14:02:08.453Z,2.53
2018-12-18T14:04:37.358Z,3.27
2018-12-18T14:07:05.984Z,3.13
2018-12-18T14:09:37.221Z,3.17
2018-12-18T14:12:06.329Z,2.80
2018-12-18T14:14:34.783Z,2.80
2018-12-18T14:17:03.602Z,3.03
2018-12-18T14:19:33.041Z,2.93
2018-12-18T14:22:01.675Z,2.90
2018-12-18T14:54:50.863Z,5.17
2018-12-18T14:57:40.078Z,5.00
2018-12-18T15:03:01.346Z,4.67
2018-12-18T15:05:30.248Z,6.87
2018-12-18T15:07:58.818Z,6.40
2018-12-18T15:10:27.917Z,6.27
2018-12-18T15:12:56.530Z,6.90
2018-12-18T15:15:25.433Z,6.00
2018-12-18T15:17:54.507Z,5.87
2018-12-18T15:20:23.222Z,5.43
2018-12-18T15:23:11.304Z,5.57
2018-12-18T15:25:57.590Z,6.20
2018-12-18T15:28:50.082Z,6.03
2018-12-18T15:31:20.413Z,6.23
2018-12-18T15:33:49.016Z,5.57
2018-12-18T15:36:40.268Z,5.40
2018-12-18T15:41:49.360Z,7.10
2018-12-18T15:44:18.035Z,7.60
2018-12-18T15:46:46.677Z,7.10
2018-12-18T15:49:15.468Z,6.30
2018-12-18T15:51:44.040Z,6.60
2018-12-18T15:54:12.730Z,6.27
2018-12-18T15:56:42.035Z,5.40
2018-12-18T15:59:10.650Z,6.23
2018-12-18T16:01:39.456Z,6.17
2018-12-18T16:04:16.108Z,5.80
2018-12-18T16:18:31.797Z,7.80
2018-12-18T16:24:03.458Z,10.20
2018-12-18T16:26:32.678Z,10.10
2018-12-18T16:29:01.296Z,8.67
2018-12-18T16:31:29.915Z,8.87
2018-12-18T16:33:59.615Z,7.50
2018-12-18T16:36:28.164Z,7.40
2018-12-18T16:38:56.916Z,7.87
2018-12-18T16:47:37.232Z,6.80
2018-12-18T16:50:13.800Z,7.20
2018-12-18T16:52:49.823Z,7.87
2018-12-18T16:58:28.287Z,9.37
2018-12-18T17:01:03.151Z,10.73
2018-12-18T17:03:39.510Z,11.77
2018-12-18T17:06:17.488Z,11.30
2018-12-18T17:08:49.629Z,12.20
2018-12-18T17:11:18.221Z,12.47
2018-12-18T17:13:52.555Z,11.67
2018-12-18T17:22:44.293Z,10.67
2018-12-18T17:25:30.876Z,8.70
2018-12-18T17:52:39.088Z,9.50
2018-12-18T17:55:10.192Z,10.20
2018-12-18T17:57:54.814Z,9.83
2018-12-18T18:06:51.598Z,8.47
2018-12-18T18:15:46.212Z,7.00
2018-12-18T18:18:34.069Z,7.87
2018-12-18T18:27:15.161Z,8.10
2018-12-18T18:29:49.770Z,8.67
2018-12-18T18:32:36.954Z,9.07
2018-12-18T19:14:45.082Z,10.03
2018-12-18T19:38:34.666Z,12.60
2018-12-18T19:41:03.331Z,14.30
2018-12-18T19:43:31.952Z,16.80
2018-12-18T19:46:00.714Z,18.50
2018-12-18T19:48:32.765Z,18.60
2018-12-18T19:51:02.001Z,15.23
2018-12-18T19:53:31.118Z,14.37
2018-12-18T19:56:11.858Z,12.60
2018-12-18T20:00:15.762Z,12.83
2018-12-18T20:02:44.711Z,12.07
2018-12-18T20:05:13.579Z,11.50
2018-12-18T20:07:45.909Z,11.97
2018-12-18T20:10:15.761Z,11.80
